Time;durP1;ratioP1;P1;durP2;ratioP2;P2;SDS_P1;SDS_P2;PMS_P1;PMS_P2;Temp;Humidity;BMP_temperature;BMP_pressure;BME280_temperature;BME280_humidity;BME280_pressure;Samples;Min_cycle;Max_cycle;Signal;HPM_P1;HPM_P2
2023/05/03 00:01:48;;;;;;;4.57;3.25;;;15.80;99.90;;;;;;5039331;28;20021;-51
2023/05/03 00:04:17;;;;;;;3.80;2.97;;;15.80;99.90;;;;;;5048376;28;20497;-50
2023/05/03 00:06:43;;;;;;;4.90;3.55;;;15.80;99.90;;;;;;5047523;28;20036;-49
2023/05/03 00:09:09;;;;;;;4.88;3.28;;;15.80;99.90;;;;;;5035791;28;20030;-49
2023/05/03 00:11:35;;;;;;;4.68;3.42;;;15.80;99.90;;;;;;5034960;28;20063;-50
2023/05/03 00:14:01;;;;;;;4.47;3.53;;;;;;;;;;5039646;28;20035;-50
2023/05/03 00:16:28;;;;;;;5.97;4.30;;;;;;;;;;5038115;28;20025;-51
2023/05/03 00:18:53;;;;;;;7.13;4.55;;;15.80;99.90;;;;;;5038693;28;20033;-49
2023/05/03 00:21:19;;;;;;;4.93;3.78;;;15.90;99.90;;;;;;5036088;28;20033;-51
2023/05/03 00:23:45;;;;;;;5.15;3.55;;;15.90;99.90;;;;;;5037957;28;20028;-50
2023/05/03 00:26:11;;;;;;;5.53;4.50;;;15.80;99.90;;;;;;5040666;28;20083;-51
2023/05/03 00:28:36;;;;;;;3.45;3.15;;;15.80;99.90;;;;;;5042210;28;20032;-50
2023/05/03 00:31:09;;;;;;;6.70;4.07;;;15.90;99.90;;;;;;5037953;28;20032;-49
2023/05/03 00:33:38;;;;;;;4.18;3.78;;;15.80;99.90;;;;;;5054303;28;20584;-50
2023/05/03 00:36:11;;;;;;;5.57;3.75;;;15.80;99.90;;;;;;5041204;28;20087;-50
2023/05/03 00:38:38;;;;;;;4.53;3.50;;;15.80;99.90;;;;;;5039767;28;20072;-51
2023/05/03 00:41:04;;;;;;;5.82;3.72;;;15.70;99.90;;;;;;5037260;28;20021;-51
2023/05/03 00:43:34;;;;;;;5.63;4.15;;;15.80;99.90;;;;;;5041288;28;20033;-51
2023/05/03 00:46:02;;;;;;;4.20;3.20;;;15.80;99.90;;;;;;5039665;28;20140;-52
2023/05/03 00:48:28;;;;;;;4.78;3.22;;;15.80;99.90;;;;;;5041070;28;20038;-50
2023/05/03 00:50:57;;;;;;;5.53;3.85;;;15.80;99.90;;;;;;5040693;28;20099;-51
2023/05/03 00:53:24;;;;;;;5.15;3.45;;;15.80;99.90;;;;;;5036703;28;20381;-49
2023/05/03 00:55:52;;;;;;;4.72;3.63;;;15.80;99.90;;;;;;5038933;28;20552;-51
2023/05/03 00:58:18;;;;;;;5.55;3.83;;;15.80;99.90;;;;;;5037140;28;20501;-50
2023/05/03 01:00:43;;;;;;;5.05;3.50;;;15.80;99.90;;;;;;5036246;28;20022;-51
2023/05/03 01:03:10;;;;;;;4.07;3.35;;;;;;;;;;5039392;28;20051;-50
2023/05/03 01:06:02;;;;;;;4.28;3.13;;;;;;;;;;5040566;28;20040;-49
2023/05/03 01:08:34;;;;;;;6.53;4.15;;;15.40;99.90;;;;;;5039159;28;20053;-50
2023/05/03 01:11:06;;;;;;;5.60;3.80;;;15.40;99.90;;;;;;5036889;28;20538;-49
2023/05/03 01:13:51;;;;;;;4.15;3.45;;;15.50;99.90;;;;;;5036420;28;20025;-50
2023/05/03 01:16:29;;;;;;;5.20;3.22;;;15.60;99.90;;;;;;5036812;28;20461;-48
2023/05/03 01:19:00;;;;;;;6.30;4.13;;;15.60;99.90;;;;;;5035896;28;20083;-50
2023/05/03 01:21:28;;;;;;;6.85;3.60;;;15.60;99.90;;;;;;5038057;28;20116;-50
2023/05/03 01:24:08;;;;;;;4.55;3.25;;;15.60;99.90;;;;;;5035131;28;20522;-52
2023/05/03 01:26:33;;;;;;;3.85;3.47;;;15.60;99.90;;;;;;5066120;28;20083;-51
2023/05/03 01:28:59;;;;;;;4.53;3.95;;;15.60;99.90;;;;;;5051131;28;21036;-50
2023/05/03 01:31:45;;;;;;;4.60;3.20;;;15.60;99.90;;;;;;5038608;28;20057;-49
2023/05/03 01:34:39;;;;;;;5.45;4.03;;;15.60;99.90;;;;;;5038118;28;20028;-49
2023/05/03 01:37:09;;;;;;;10.35;6.22;;;15.60;99.90;;;;;;5034819;28;20083;-49
2023/05/03 01:39:44;;;;;;;6.47;4.35;;;15.60;99.90;;;;;;5036665;28;20033;-50
2023/05/03 01:42:11;;;;;;;5.03;3.53;;;15.50;99.90;;;;;;5061753;28;20117;-49
2023/05/03 01:44:38;;;;;;;4.38;3.15;;;15.60;99.90;;;;;;5036348;28;20075;-50
2023/05/03 01:47:04;;;;;;;6.88;3.55;;;15.50;99.90;;;;;;5035551;28;20030;-50
2023/05/03 01:49:29;;;;;;;5.57;3.65;;;15.50;99.90;;;;;;5037795;28;20120;-50
2023/05/03 01:51:55;;;;;;;6.68;4.13;;;15.50;99.90;;;;;;5051085;28;20041;-51
2023/05/03 01:54:21;;;;;;;5.30;3.40;;;15.50;99.90;;;;;;5038366;28;20061;-49
2023/05/03 01:56:47;;;;;;;5.05;3.47;;;15.50;99.90;;;;;;5036922;28;20108;-50
2023/05/03 01:59:12;;;;;;;4.50;3.17;;;15.50;99.90;;;;;;5039082;28;20435;-49
2023/05/03 02:01:38;;;;;;;5.22;3.90;;;15.40;99.90;;;;;;5036786;28;20026;-50
2023/05/03 02:04:04;;;;;;;4.45;3.20;;;15.50;99.90;;;;;;5036896;28;20064;-52
2023/05/03 02:06:30;;;;;;;5.88;4.20;;;15.40;99.90;;;;;;5055937;28;20033;-50
2023/05/03 02:08:56;;;;;;;8.05;4.65;;;15.30;99.90;;;;;;5035958;28;20397;-51
2023/05/03 02:11:21;;;;;;;6.20;3.97;;;15.20;99.90;;;;;;5034995;28;20030;-51
2023/05/03 02:13:48;;;;;;;3.90;3.25;;;15.20;99.90;;;;;;5034600;28;20018;-52
2023/05/03 02:16:14;;;;;;;4.00;3.20;;;15.20;99.90;;;;;;5034018;28;20053;-50
2023/05/03 02:18:40;;;;;;;3.55;2.95;;;15.20;99.90;;;;;;5039302;28;20058;-51
2023/05/03 02:21:08;;;;;;;7.22;3.50;;;15.20;99.90;;;;;;5033759;28;20042;-50
2023/05/03 02:23:33;;;;;;;4.32;3.50;;;15.20;99.90;;;;;;5037396;28;20032;-51
2023/05/03 02:25:59;;;;;;;6.40;3.63;;;15.10;99.90;;;;;;5035405;28;20048;-50
2023/05/03 02:28:25;;;;;;;4.18;3.63;;;;;;;;;;5054515;28;20037;-52
2023/05/03 02:30:51;;;;;;;4.57;3.65;;;15.00;99.90;;;;;;5039753;28;20370;-50
2023/05/03 02:33:16;;;;;;;5.35;3.17;;;15.00;99.90;;;;;;5038778;28;20159;-50
2023/05/03 02:35:42;;;;;;;6.15;3.97;;;15.10;99.90;;;;;;5034909;28;20104;-49
2023/05/03 02:38:08;;;;;;;5.43;3.60;;;15.20;99.90;;;;;;5036609;28;20049;-49
2023/05/03 02:40:33;;;;;;;5.07;3.60;;;14.90;99.90;;;;;;5038281;28;20029;-49
2023/05/03 02:42:59;;;;;;;5.97;3.85;;;14.90;99.90;;;;;;5034586;28;20519;-49
2023/05/03 02:45:25;;;;;;;4.90;3.70;;;15.00;99.90;;;;;;5036028;28;20057;-50
2023/05/03 02:47:51;;;;;;;8.02;4.70;;;15.00;99.90;;;;;;5036765;28;20049;-49
2023/05/03 02:50:16;;;;;;;6.63;4.93;;;14.80;99.90;;;;;;5040231;28;20025;-50
2023/05/03 02:52:42;;;;;;;6.55;4.43;;;14.80;99.90;;;;;;5033043;28;20033;-52
2023/05/03 02:55:08;;;;;;;8.02;4.47;;;14.80;99.90;;;;;;5033907;28;20465;-52
2023/05/03 02:57:34;;;;;;;6.00;4.65;;;14.90;99.90;;;;;;5035899;28;20083;-49
2023/05/03 03:00:00;;;;;;;5.53;4.05;;;15.00;99.90;;;;;;5037350;28;20037;-50
2023/05/03 03:02:26;;;;;;;6.35;4.07;;;;;;;;;;5036439;28;20021;-50
2023/05/03 03:04:52;;;;;;;6.10;4.88;;;14.50;99.90;;;;;;5039217;28;20032;-49
2023/05/03 03:07:18;;;;;;;8.95;4.97;;;14.60;99.90;;;;;;5033004;28;20040;-52
2023/05/03 03:09:44;;;;;;;4.57;3.30;;;;;;;;;;5037615;28;20029;-50
2023/05/03 03:12:09;;;;;;;5.05;3.78;;;14.50;99.90;;;;;;5033563;28;20095;-50
2023/05/03 03:14:35;;;;;;;5.00;3.45;;;14.20;99.90;;;;;;5050394;28;20461;-52
2023/05/03 03:17:02;;;;;;;5.57;3.72;;;14.20;99.90;;;;;;5033403;28;20082;-52
2023/05/03 03:19:27;;;;;;;5.05;3.55;;;14.30;99.90;;;;;;5034296;28;20102;-50
2023/05/03 03:21:54;;;;;;;4.10;3.63;;;;;;;;;;5034131;28;20028;-49
2023/05/03 03:24:20;;;;;;;5.00;3.80;;;;;;;;;;5034633;28;20447;-52
2023/05/03 03:26:46;;;;;;;6.30;4.20;;;;;;;;;;5037570;28;20033;-49
2023/05/03 03:29:12;;;;;;;7.55;3.90;;;;;;;;;;5036660;28;20025;-52
2023/05/03 03:31:38;;;;;;;3.50;3.20;;;;;;;;;;5049157;28;20465;-50
2023/05/03 03:34:04;;;;;;;6.03;4.45;;;;;;;;;;5033399;28;20087;-50
2023/05/03 03:36:30;;;;;;;5.95;4.25;;;;;;;;;;5034660;28;20021;-50
2023/05/03 03:38:56;;;;;;;6.18;3.92;;;;;;;;;;5037572;28;20029;-49
2023/05/03 03:41:22;;;;;;;3.78;3.05;;;13.10;99.90;;;;;;5035093;28;20037;-52
2023/05/03 03:43:48;;;;;;;5.32;3.50;;;13.10;99.90;;;;;;5033662;28;20037;-50
2023/05/03 03:46:14;;;;;;;4.55;3.60;;;13.30;99.90;;;;;;5033941;28;20108;-50
2023/05/03 03:48:39;;;;;;;4.47;3.30;;;13.50;99.90;;;;;;5031790;28;20402;-52
2023/05/03 03:51:05;;;;;;;5.35;4.47;;;13.80;99.90;;;;;;5034883;28;20021;-50
2023/05/03 03:53:31;;;;;;;4.38;3.67;;;13.90;99.90;;;;;;5033655;28;20056;-50
2023/05/03 03:55:56;;;;;;;5.38;4.18;;;13.60;99.90;;;;;;5035169;28;20366;-51
2023/05/03 03:58:22;;;;;;;6.47;4.40;;;13.40;99.90;;;;;;5034917;28;20041;-52
2023/05/03 04:00:48;;;;;;;5.85;3.70;;;13.50;99.90;;;;;;5038278;28;20030;-50
2023/05/03 04:03:14;;;;;;;5.03;4.18;;;13.00;99.90;;;;;;5032394;28;20065;-49
2023/05/03 04:05:40;;;;;;;5.35;3.95;;;13.20;99.90;;;;;;5033495;28;20022;-52
2023/05/03 04:08:06;;;;;;;5.32;3.70;;;13.30;99.90;;;;;;5047086;28;20056;-50
2023/05/03 04:10:31;;;;;;;5.60;4.05;;;13.00;99.90;;;;;;5035728;28;20514;-49
2023/05/03 04:12:57;;;;;;;5.18;3.97;;;13.00;99.90;;;;;;5047759;28;20037;-49
2023/05/03 04:15:23;;;;;;;7.03;4.38;;;13.30;99.90;;;;;;5034305;28;20037;-51
2023/05/03 04:17:48;;;;;;;5.15;3.63;;;13.60;99.90;;;;;;5037862;28;20021;-52
2023/05/03 04:20:16;;;;;;;4.68;3.92;;;13.40;99.90;;;;;;5038465;28;20389;-49
2023/05/03 04:22:42;;;;;;;5.70;4.43;;;13.50;99.90;;;;;;5034437;28;20037;-52
2023/05/03 04:25:12;;;;;;;7.22;3.55;;;13.80;99.90;;;;;;5028766;28;20370;-50
2023/05/03 04:27:39;;;;;;;5.80;3.78;;;13.60;99.90;;;;;;5033580;28;20041;-49
2023/05/03 04:30:05;;;;;;;9.07;4.70;;;13.40;99.90;;;;;;5031181;28;20034;-51
2023/05/03 04:32:35;;;;;;;10.02;5.50;;;13.80;99.90;;;;;;5030659;28;20041;-49
2023/05/03 04:35:08;;;;;;;5.43;4.15;;;14.00;99.90;;;;;;5030638;28;20067;-50
2023/05/03 04:37:34;;;;;;;6.40;4.28;;;14.00;99.90;;;;;;5032269;28;20045;-51
2023/05/03 04:40:00;;;;;;;5.93;4.82;;;14.20;99.90;;;;;;5058404;28;20043;-52
2023/05/03 04:42:26;;;;;;;6.65;4.82;;;14.40;99.90;;;;;;5034953;28;20116;-52
2023/05/03 04:44:51;;;;;;;6.68;4.60;;;14.50;99.90;;;;;;5032607;28;20479;-49
2023/05/03 04:47:18;;;;;;;5.32;4.43;;;14.60;99.90;;;;;;5033479;28;20363;-51
2023/05/03 04:49:45;;;;;;;7.63;3.78;;;14.40;99.90;;;;;;5036252;28;20041;-48
2023/05/03 04:52:11;;;;;;;6.65;4.68;;;14.50;99.90;;;;;;5040919;28;20037;-49
2023/05/03 04:54:37;;;;;;;5.43;4.45;;;14.50;99.90;;;;;;5034039;28;20032;-50
2023/05/03 04:57:02;;;;;;;5.45;4.18;;;14.60;99.90;;;;;;5033707;28;20104;-49
2023/05/03 04:59:28;;;;;;;4.10;2.92;;;14.60;99.90;;;;;;5039177;28;20033;-51
2023/05/03 05:01:54;;;;;;;3.63;3.20;;;14.20;99.90;;;;;;5036418;28;20073;-51
2023/05/03 05:04:20;;;;;;;6.88;3.97;;;14.30;99.90;;;;;;5051982;28;20040;-52
2023/05/03 05:06:45;;;;;;;5.28;3.75;;;14.60;99.90;;;;;;5049838;28;20045;-50
2023/05/03 05:09:25;;;;;;;3.95;3.42;;;;;;;;;;5040858;28;20028;-49
2023/05/03 05:11:51;;;;;;;9.95;4.38;;;15.10;99.90;;;;;;5034852;28;20033;-50
2023/05/03 05:14:17;;;;;;;6.82;4.32;;;15.30;99.90;;;;;;5040557;28;20029;-50
2023/05/03 05:16:43;;;;;;;5.47;3.92;;;15.40;99.90;;;;;;5039001;28;20048;-51
2023/05/03 05:19:09;;;;;;;5.60;3.90;;;;;;;;;;5035933;28;20030;-50
2023/05/03 05:21:35;;;;;;;5.38;4.18;;;15.60;99.90;;;;;;5038753;28;20029;-50
2023/05/03 05:24:01;;;;;;;7.07;4.50;;;15.70;99.90;;;;;;5058308;28;20720;-51
2023/05/03 05:26:27;;;;;;;5.35;4.47;;;15.80;99.90;;;;;;5037930;28;20386;-50
2023/05/03 05:28:53;;;;;;;4.65;3.80;;;15.90;99.90;;;;;;5040624;28;20051;-50
2023/05/03 05:31:19;;;;;;;4.78;3.80;;;;;;;;;;5040304;28;20481;-50
2023/05/03 05:33:45;;;;;;;6.47;4.80;;;;;;;;;;5042677;28;20527;-51
2023/05/03 05:36:11;;;;;;;4.57;4.07;;;16.20;99.90;;;;;;5050713;28;20043;-51
2023/05/03 05:38:36;;;;;;;4.90;3.90;;;16.40;99.90;;;;;;5037262;28;20030;-50
2023/05/03 05:41:02;;;;;;;6.78;5.10;;;;;;;;;;5039567;28;20087;-50
2023/05/03 05:43:28;;;;;;;6.22;4.60;;;;;;;;;;5036871;28;20096;-51
2023/05/03 05:45:54;;;;;;;7.30;5.05;;;16.70;99.90;;;;;;5037022;28;20061;-50
2023/05/03 05:48:20;;;;;;;7.45;5.20;;;;;;;;;;5040580;28;20068;-50
2023/05/03 05:50:46;;;;;;;6.28;5.03;;;17.00;99.90;;;;;;5035407;28;20018;-50
2023/05/03 05:53:11;;;;;;;5.78;4.57;;;17.00;99.90;;;;;;5050284;28;20088;-50
2023/05/03 05:55:37;;;;;;;6.45;5.20;;;16.90;99.90;;;;;;5036265;28;20029;-50
2023/05/03 05:58:03;;;;;;;5.80;4.68;;;16.80;99.90;;;;;;5036282;28;20060;-50
2023/05/03 06:00:29;;;;;;;6.25;4.57;;;16.80;99.90;;;;;;5038783;28;20030;-51
2023/05/03 06:02:55;;;;;;;9.80;5.68;;;16.80;99.90;;;;;;5037448;28;20151;-50
2023/05/03 06:05:21;;;;;;;8.05;4.68;;;17.00;99.90;;;;;;5037275;28;20036;-50
2023/05/03 06:07:47;;;;;;;9.38;4.65;;;;;;;;;;5033291;28;20382;-51
2023/05/03 06:10:13;;;;;;;6.80;5.20;;;17.40;99.90;;;;;;5051199;28;20141;-50
2023/05/03 06:12:38;;;;;;;9.15;5.65;;;17.50;99.90;;;;;;5035795;28;20041;-51
2023/05/03 06:15:05;;;;;;;9.05;5.68;;;17.80;99.90;;;;;;5040262;28;20389;-50
2023/05/03 06:17:30;;;;;;;8.38;5.43;;;17.80;99.90;;;;;;5034660;28;20385;-51
2023/05/03 06:19:57;;;;;;;6.05;4.43;;;;;;;;;;5039938;28;20030;-51
2023/05/03 06:22:24;;;;;;;7.70;4.72;;;;;;;;;;5033260;28;20037;-51
2023/05/03 06:24:50;;;;;;;6.53;4.57;;;17.80;99.90;;;;;;5035298;28;20405;-50
2023/05/03 06:27:16;;;;;;;6.28;4.68;;;17.90;99.90;;;;;;5037092;28;20116;-51
2023/05/03 06:29:43;;;;;;;6.70;5.18;;;17.90;99.90;;;;;;5035378;28;20021;-50
2023/05/03 06:32:09;;;;;;;6.68;4.93;;;;;;;;;;5036238;28;20504;-51
2023/05/03 06:34:36;;;;;;;6.53;5.05;;;18.60;99.90;;;;;;5037578;28;20028;-51
2023/05/03 06:37:02;;;;;;;7.32;4.95;;;18.70;99.90;;;;;;5035343;28;20031;-51
2023/05/03 06:39:28;;;;;;;7.38;4.70;;;18.50;99.90;;;;;;5038603;28;20108;-51
2023/05/03 06:41:54;;;;;;;9.38;5.53;;;;;;;;;;5054806;28;20123;-50
2023/05/03 06:44:20;;;;;;;8.13;5.38;;;;;;;;;;5037559;28;20029;-51
2023/05/03 06:46:46;;;;;;;7.88;5.43;;;18.80;99.90;;;;;;5035348;28;20041;-50
2023/05/03 06:49:11;;;;;;;8.35;5.40;;;18.70;99.90;;;;;;5038532;28;20432;-50
2023/05/03 06:51:37;;;;;;;5.88;4.38;;;18.70;99.90;;;;;;5034289;28;20080;-51
2023/05/03 06:54:08;;;;;;;6.18;4.72;;;18.60;99.90;;;;;;5037597;28;20465;-51
2023/05/03 06:56:34;;;;;;;8.30;5.30;;;18.60;99.90;;;;;;5068068;28;20041;-50
2023/05/03 06:59:00;;;;;;;7.88;4.55;;;18.80;99.90;;;;;;5035057;28;20970;-50
2023/05/03 07:01:26;;;;;;;8.27;5.25;;;18.90;99.90;;;;;;5034133;28;20079;-50
2023/05/03 07:03:52;;;;;;;6.57;4.88;;;19.00;99.90;;;;;;5034408;28;20084;-51
2023/05/03 07:06:17;;;;;;;7.38;5.93;;;19.10;99.90;;;;;;5034899;28;20021;-50
2023/05/03 07:08:43;;;;;;;6.80;5.25;;;19.00;99.90;;;;;;5037062;28;20385;-51
2023/05/03 07:11:09;;;;;;;7.30;4.90;;;19.20;99.90;;;;;;5049405;28;20029;-51
2023/05/03 07:13:35;;;;;;;6.85;5.03;;;18.90;99.90;;;;;;5034657;28;20473;-50
2023/05/03 07:16:01;;;;;;;6.15;4.70;;;19.10;99.90;;;;;;5036507;28;20532;-51
2023/05/03 07:18:27;;;;;;;6.82;5.13;;;;;;;;;;5048817;28;20133;-51
2023/05/03 07:20:53;;;;;;;7.38;4.80;;;;;;;;;;5037882;28;20029;-50
2023/05/03 07:23:19;;;;;;;6.18;4.97;;;;;;;;;;5034693;28;20090;-50
2023/05/03 07:25:46;;;;;;;5.95;4.07;;;;;;;;;;5037134;28;20557;-51
2023/05/03 07:28:12;;;;;;;6.60;4.05;;;20.10;99.90;;;;;;5036039;28;20033;-50
2023/05/03 07:30:37;;;;;;;6.28;4.32;;;20.00;99.90;;;;;;5036383;28;20032;-51
2023/05/03 07:33:03;;;;;;;7.25;5.10;;;19.80;99.90;;;;;;5034379;28;20075;-50
2023/05/03 07:35:30;;;;;;;5.53;4.40;;;19.70;99.90;;;;;;5038032;28;20025;-51
2023/05/03 07:37:56;;;;;;;5.30;3.80;;;19.70;99.90;;;;;;5033526;28;20122;-51
2023/05/03 07:40:21;;;;;;;5.13;4.00;;;19.40;99.90;;;;;;5034957;28;20060;-50
2023/05/03 07:42:47;;;;;;;5.05;3.40;;;19.40;99.90;;;;;;5035888;28;20033;-51
2023/05/03 07:45:13;;;;;;;5.68;3.58;;;19.30;99.90;;;;;;5015975;28;20037;-51
2023/05/03 07:47:39;;;;;;;5.72;3.95;;;19.30;99.90;;;;;;5035065;28;20029;-51
2023/05/03 07:50:05;;;;;;;4.53;3.33;;;19.30;99.90;;;;;;5034531;28;20072;-50
2023/05/03 07:52:36;;;;;;;3.33;2.92;;;19.30;99.90;;;;;;5047789;28;20040;-51
2023/05/03 07:55:02;;;;;;;4.65;2.63;;;19.40;99.90;;;;;;5038306;28;20033;-51
2023/05/03 07:57:28;;;;;;;2.90;2.08;;;19.50;99.90;;;;;;5033187;28;20025;-51
2023/05/03 07:59:54;;;;;;;4.13;1.98;;;19.40;99.90;;;;;;5035825;28;20025;-51
2023/05/03 08:02:21;;;;;;;2.13;1.92;;;;;;;;;;5034054;28;20602;-51
2023/05/03 08:04:47;;;;;;;3.85;1.98;;;;;;;;;;5033743;28;20044;-51
2023/05/03 08:07:13;;;;;;;2.75;1.63;;;19.10;99.90;;;;;;5040683;28;20056;-51
2023/05/03 08:09:39;;;;;;;2.63;1.60;;;19.10;99.90;;;;;;5034581;28;20045;-50
2023/05/03 08:12:05;;;;;;;3.22;1.88;;;18.90;99.90;;;;;;5032686;28;20030;-49
2023/05/03 08:14:32;;;;;;;2.85;1.70;;;19.00;99.90;;;;;;5032470;28;20029;-50
2023/05/03 08:16:58;;;;;;;1.92;1.10;;;19.10;99.90;;;;;;5034315;28;20056;-50
2023/05/03 08:19:24;;;;;;;0.52;0.52;;;19.00;99.90;;;;;;5048679;28;20037;-50
2023/05/03 08:21:53;;;;;;;1.02;0.85;;;18.70;99.90;;;;;;5036951;28;20419;-50
2023/05/03 08:24:19;;;;;;;1.70;1.00;;;18.80;99.90;;;;;;5032938;28;20060;-50
2023/05/03 08:26:47;;;;;;;0.68;0.68;;;18.90;99.90;;;;;;5037317;28;20335;-50
2023/05/03 08:29:13;;;;;;;1.10;0.93;;;18.80;99.90;;;;;;5035883;28;20041;-50
2023/05/03 08:31:39;;;;;;;1.08;0.85;;;19.10;99.90;;;;;;5034579;28;20068;-50
2023/05/03 08:34:06;;;;;;;1.05;0.93;;;19.10;99.90;;;;;;5037272;28;20057;-50
2023/05/03 08:36:31;;;;;;;1.10;1.00;;;19.20;99.90;;;;;;5037955;28;20040;-49
2023/05/03 08:38:57;;;;;;;1.70;1.33;;;19.00;99.90;;;;;;5041617;28;20028;-50
2023/05/03 08:41:27;;;;;;;1.70;1.27;;;18.90;99.90;;;;;;5037662;28;20112;-50
2023/05/03 08:43:54;;;;;;;1.50;1.02;;;19.20;99.90;;;;;;5038775;28;20021;-50
2023/05/03 08:46:20;;;;;;;1.13;0.80;;;19.40;99.90;;;;;;5037850;28;20468;-50
2023/05/03 08:48:51;;;;;;;0.77;0.75;;;19.40;99.90;;;;;;5057375;28;20043;-49
2023/05/03 08:51:18;;;;;;;1.33;1.00;;;19.10;99.90;;;;;;5055704;28;20044;-50
2023/05/03 08:53:44;;;;;;;1.13;1.02;;;19.30;99.90;;;;;;5036458;28;20332;-49
2023/05/03 08:56:13;;;;;;;1.00;0.88;;;19.20;99.90;;;;;;5041053;28;20026;-49
2023/05/03 08:58:39;;;;;;;0.88;0.70;;;19.20;99.90;;;;;;5018595;28;20072;-49
2023/05/03 09:01:07;;;;;;;1.00;0.90;;;19.20;99.90;;;;;;5037610;28;20036;-50
2023/05/03 09:03:34;;;;;;;1.30;0.73;;;19.40;99.90;;;;;;5028575;28;20084;-50
2023/05/03 09:06:01;;;;;;;1.88;1.30;;;19.50;99.90;;;;;;5052209;28;20048;-50
2023/05/03 09:08:30;;;;;;;1.08;0.88;;;19.70;99.90;;;;;;5037059;28;20033;-49
2023/05/03 09:10:57;;;;;;;1.58;1.00;;;;;;;;;;5036826;28;20108;-50
2023/05/03 09:13:33;;;;;;;2.85;1.13;;;20.00;99.90;;;;;;5039619;28;20408;-49
2023/05/03 09:16:01;;;;;;;1.27;0.95;;;20.40;99.90;;;;;;5033867;28;20029;-50
2023/05/03 09:18:26;;;;;;;1.40;1.00;;;20.30;99.90;;;;;;5041093;28;20033;-50
2023/05/03 09:20:53;;;;;;;1.45;1.13;;;;;;;;;;5053347;28;20051;-50
2023/05/03 09:23:30;;;;;;;1.05;0.77;;;20.70;99.90;;;;;;5036191;28;20124;-50
2023/05/03 09:25:57;;;;;;;2.92;1.35;;;;;;;;;;5036693;28;20057;-50
2023/05/03 09:28:22;;;;;;;2.35;1.30;;;20.50;99.90;;;;;;5046524;28;20541;-50
2023/05/03 09:31:02;;;;;;;2.72;1.63;;;20.70;99.90;;;;;;5035094;28;20121;-50
2023/05/03 09:33:29;;;;;;;1.10;1.00;;;20.40;99.90;;;;;;5033384;28;20041;-51
2023/05/03 09:35:56;;;;;;;1.90;1.20;;;20.50;99.90;;;;;;5033169;28;20432;-50
2023/05/03 09:38:31;;;;;;;2.08;1.00;;;20.60;99.90;;;;;;5038581;28;20029;-50
2023/05/03 09:40:57;;;;;;;2.03;1.20;;;;;;;;;;5035029;28;20132;-50
2023/05/03 09:43:23;;;;;;;1.90;0.88;;;20.70;99.90;;;;;;5017236;28;20545;-50
2023/05/03 09:45:49;;;;;;;1.25;0.93;;;20.70;99.90;;;;;;5034590;28;20132;-50
2023/05/03 09:48:15;;;;;;;1.60;1.10;;;20.70;99.90;;;;;;5039212;28;20029;-50
2023/05/03 09:50:42;;;;;;;1.20;1.05;;;20.50;99.90;;;;;;5035929;28;20124;-49
2023/05/03 09:53:08;;;;;;;3.50;0.95;;;20.40;99.90;;;;;;5033366;28;20120;-50
2023/05/03 09:55:34;;;;;;;1.20;1.10;;;20.50;99.90;;;;;;5037655;28;20105;-49
2023/05/03 09:58:05;;;;;;;1.92;1.00;;;20.50;99.90;;;;;;5036637;28;20025;-49
2023/05/03 10:00:33;;;;;;;4.13;1.10;;;;;;;;;;5035911;28;20109;-51
2023/05/03 10:03:00;;;;;;;1.38;1.10;;;;;;;;;;5038750;28;20044;-50
2023/05/03 10:05:29;;;;;;;1.08;0.90;;;21.10;99.90;;;;;;5036478;28;20377;-49
2023/05/03 10:07:58;;;;;;;2.90;1.30;;;21.30;99.90;;;;;;5040219;28;20037;-50
2023/05/03 10:10:27;;;;;;;1.20;1.10;;;21.30;99.90;;;;;;5038468;28;20042;-50
2023/05/03 10:12:53;;;;;;;2.25;1.05;;;21.10;99.90;;;;;;5038207;28;20025;-49
2023/05/03 10:15:22;;;;;;;1.10;0.88;;;21.30;99.90;;;;;;5036338;28;20060;-50
2023/05/03 10:17:52;;;;;;;1.15;1.02;;;21.00;99.90;;;;;;5034272;28;20037;-49
2023/05/03 10:20:46;;;;;;;1.60;1.17;;;21.10;99.90;;;;;;5039811;28;20029;-50
2023/05/03 10:23:13;;;;;;;0.85;0.77;;;21.00;99.90;;;;;;5034704;28;20591;-50
2023/05/03 10:25:59;;;;;;;1.58;0.98;;;21.20;99.90;;;;;;5030827;28;20052;-51
2023/05/03 10:28:25;;;;;;;1.70;1.00;;;21.20;99.60;;;;;;5035319;28;20566;-50
2023/05/03 10:30:50;;;;;;;1.13;1.00;;;21.00;99.60;;;;;;5040688;28;20029;-50
2023/05/03 10:33:16;;;;;;;0.80;0.80;;;21.00;99.90;;;;;;5035383;28;20037;-50
2023/05/03 10:35:50;;;;;;;1.85;1.48;;;20.80;99.30;;;;;;5036599;28;20377;-50
2023/05/03 10:38:19;;;;;;;1.33;1.00;;;20.80;99.40;;;;;;5030098;28;20033;-50
2023/05/03 10:40:45;;;;;;;1.42;0.70;;;20.50;99.70;;;;;;5034997;28;20478;-50
2023/05/03 10:43:32;;;;;;;1.08;0.98;;;;;;;;;;5038398;28;20029;-50
2023/05/03 10:45:58;;;;;;;1.63;1.08;;;;;;;;;;5051354;28;20055;-49
2023/05/03 10:48:25;;;;;;;0.90;0.80;;;;;;;;;;5037129;28;20064;-49
2023/05/03 10:50:51;;;;;;;3.20;1.23;;;;;;;;;;5038261;28;20074;-50
2023/05/03 10:53:37;;;;;;;0.73;0.65;;;20.60;99.90;;;;;;5033664;28;20022;-50
2023/05/03 10:56:14;;;;;;;0.82;0.82;;;20.60;99.90;;;;;;5039243;28;20052;-49
2023/05/03 10:58:45;;;;;;;1.35;0.88;;;20.30;98.90;;;;;;5034721;28;20033;-51
2023/05/03 11:01:17;;;;;;;1.40;1.30;;;20.10;99.30;;;;;;5032831;28;20034;-50
2023/05/03 11:03:47;;;;;;;;;;;20.20;99.40;;;;;;5037272;28;20381;-51
2023/05/03 11:06:35;;;;;;;0.77;0.55;;;19.80;99.50;;;;;;5053125;28;19955;-50
2023/05/03 11:09:03;;;;;;;1.30;0.82;;;19.90;99.90;;;;;;5034830;28;20032;-50
2023/05/03 11:11:30;;;;;;;1.75;1.00;;;19.80;99.50;;;;;;5037616;28;20029;-50
2023/05/03 11:13:56;;;;;;;0.85;0.75;;;19.70;99.90;;;;;;5041907;28;20048;-51
2023/05/03 11:16:22;;;;;;;1.08;0.88;;;19.70;99.60;;;;;;5035773;28;20094;-50
2023/05/03 11:18:47;;;;;;;0.85;0.85;;;19.50;99.60;;;;;;5035604;28;20116;-49
2023/05/03 11:21:14;;;;;;;2.05;0.88;;;19.70;99.90;;;;;;5034281;28;20045;-50
2023/05/03 11:23:41;;;;;;;1.30;0.93;;;19.60;99.30;;;;;;5035722;28;20018;-50
2023/05/03 11:26:08;;;;;;;1.17;0.85;;;19.50;99.90;;;;;;5032454;28;20405;-50
2023/05/03 11:28:36;;;;;;;1.45;1.00;;;19.50;99.90;;;;;;5033362;28;20037;-50
2023/05/03 11:31:02;;;;;;;1.42;0.90;;;19.40;99.90;;;;;;5031007;28;20036;-50
2023/05/03 11:33:30;;;;;;;1.48;0.90;;;19.30;99.90;;;;;;5015391;28;20034;-50
2023/05/03 11:35:56;;;;;;;1.00;0.77;;;19.30;99.90;;;;;;5049646;28;20045;-49
2023/05/03 11:38:21;;;;;;;1.13;1.05;;;19.40;99.90;;;;;;5037936;28;20040;-50
2023/05/03 11:40:47;;;;;;;1.30;1.13;;;;;;;;;;5051532;28;20025;-50
2023/05/03 11:43:13;;;;;;;1.88;1.00;;;19.30;99.90;;;;;;5034267;28;20044;-51
2023/05/03 11:45:44;;;;;;;2.20;1.02;;;19.40;99.90;;;;;;5055942;28;20424;-50
2023/05/03 11:48:11;;;;;;;1.30;0.90;;;19.50;99.90;;;;;;5047457;28;20486;-50
2023/05/03 11:50:54;;;;;;;1.35;1.00;;;19.30;99.90;;;;;;5052535;28;20127;-50
2023/05/03 11:53:24;;;;;;;2.25;1.27;;;19.30;99.90;;;;;;5050822;28;20119;-50
2023/05/03 11:55:54;;;;;;;1.92;1.30;;;19.40;99.90;;;;;;5060162;28;20039;-51
2023/05/03 11:58:25;;;;;;;1.50;1.00;;;19.40;99.90;;;;;;5053117;28;20455;-50
2023/05/03 12:00:55;;;;;;;2.45;1.20;;;19.20;99.90;;;;;;5056248;28;20040;-50
2023/05/03 12:03:26;;;;;;;1.30;1.20;;;19.40;99.90;;;;;;5050747;28;20366;-50
2023/05/03 12:05:52;;;;;;;1.92;1.20;;;19.20;99.90;;;;;;5049007;28;20511;-50
2023/05/03 12:08:20;;;;;;;1.17;0.90;;;19.30;99.90;;;;;;5054533;28;20036;-50
2023/05/03 12:10:47;;;;;;;0.95;0.80;;;19.40;99.90;;;;;;5054025;28;20033;-50
2023/05/03 12:13:13;;;;;;;1.38;1.00;;;19.90;99.90;;;;;;5052398;28;20041;-49
2023/05/03 12:15:42;;;;;;;2.17;1.00;;;20.30;99.90;;;;;;5038588;28;20028;-50
2023/05/03 12:18:09;;;;;;;1.77;1.10;;;20.30;99.90;;;;;;5039141;28;20384;-50
2023/05/03 12:20:37;;;;;;;1.40;1.00;;;20.20;99.90;;;;;;5037176;28;20111;-50
2023/05/03 12:23:06;;;;;;;1.48;1.25;;;20.20;99.90;;;;;;5056247;28;20045;-50
2023/05/03 12:25:32;;;;;;;2.60;1.20;;;;;;;;;;5038878;28;20128;-50
2023/05/03 12:28:01;;;;;;;1.35;1.15;;;;;;;;;;5037428;28;20407;-50
2023/05/03 12:30:27;;;;;;;2.00;1.10;;;20.50;99.90;;;;;;5040093;28;20061;-50
2023/05/03 12:32:53;;;;;;;1.33;1.13;;;20.50;99.90;;;;;;5037557;28;20041;-49
2023/05/03 12:35:20;;;;;;;2.45;1.05;;;20.50;99.90;;;;;;5044614;28;20063;-49
2023/05/03 12:37:48;;;;;;;1.20;1.10;;;20.00;99.90;;;;;;5040371;28;20128;-50
2023/05/03 12:40:15;;;;;;;2.05;1.23;;;20.10;99.90;;;;;;5036466;28;20037;-50
2023/05/03 12:42:41;;;;;;;2.28;1.10;;;20.50;99.90;;;;;;5036223;28;20038;-49
2023/05/03 12:45:07;;;;;;;3.05;1.13;;;20.20;99.90;;;;;;5041197;28;20079;-50
2023/05/03 12:47:33;;;;;;;1.95;1.40;;;20.00;99.90;;;;;;5032325;28;20057;-50
2023/05/03 12:49:59;;;;;;;2.33;1.40;;;19.90;99.90;;;;;;5053194;28;20447;-50
2023/05/03 12:52:25;;;;;;;0.85;0.80;;;19.70;99.90;;;;;;5035754;28;20040;-50
2023/05/03 12:54:51;;;;;;;1.00;0.90;;;19.60;99.90;;;;;;5034874;28;20385;-50
2023/05/03 12:57:17;;;;;;;1.98;1.10;;;19.60;99.90;;;;;;5036907;28;20059;-50
2023/05/03 12:59:43;;;;;;;1.80;1.02;;;19.50;99.90;;;;;;5035535;28;20017;-50
2023/05/03 13:02:10;;;;;;;2.45;1.20;;;19.30;99.90;;;;;;5036172;28;20036;-50
2023/05/03 13:04:36;;;;;;;1.30;1.20;;;19.50;99.90;;;;;;5051355;28;20485;-50